Glen Dale, West Virginia
Current Conditions -  °F | °C
As of 1:12 PM on Friday 31 Oct 2014 (Local Time) from KHLG Reporting Station
Light Rain Light Rain  
Wind Chill: 39°   Ceiling: 1400
Heat Index: 43°   Visibility: 9mi
Dew Point: 37°   Wind: 7mph
Humidity: 80%   Direction: 270°W
Pressure: 29.9"   Gusts: NA
Location:  39.95°N, 80.76°W
Report Text: KHLG 311712Z 27006KT 9SM -RA BKN014 OVC044 06/03 A2990 RMK AO2 P0001 T00610028
Loading
Personal Weather Stations






























Interactive Weather Map
Tropical Storm Tracking
New forecast layout! Learn more

10-Day Weather Forecast

Advertisements
Track Severe Weather on mobile